Shuya, Russia
Current Conditions -  °F | °C
As of 2:00 PM on Thursday 23 Oct 2014 (Local Time) from UUDL Reporting Station
Light Snow Light Snow  
Wind Chill: 11°   Ceiling: 2600
Heat Index: 21°   Visibility: 6mi
Dew Point: 14°   Wind: 9mph
Humidity: 74%   Direction: 300°WNW
Pressure: 30.21"   Gusts: NA
Location:  56.85°N, 41.36°E
Report Text: UUDL 231100Z 30004MPS 9999 -SN BKN026 M06/M10 Q1023 NOSIG RMKQFE759 23850340
Loading
Personal Weather Stations






























Interactive Weather Map
Tropical Storm Tracking
New forecast layout! Learn more

10-Day Weather Forecast

Advertisements
Track Severe Weather on mobile